createdAt,value
2023-01-10T00:05:14.160Z,98177.28
2023-01-10T00:07:40.943Z,98166.94
2023-01-10T00:10:09.904Z,98162.34
2023-01-10T00:12:59.619Z,98158.16
2023-01-10T00:15:35.469Z,98160.19
2023-01-10T00:18:06.036Z,98164.78
2023-01-10T00:20:41.725Z,98172.78
2023-01-10T00:23:14.079Z,98177.56
2023-01-10T00:26:02.679Z,98177.94
2023-01-10T00:28:46.526Z,98187.84
2023-01-10T00:31:18.351Z,98196.44
2023-01-10T00:33:54.820Z,98191.84
2023-01-10T00:36:21.447Z,98194.66
2023-01-10T00:41:37.920Z,98206.81
2023-01-10T00:44:25.871Z,98209.28
2023-01-10T00:46:58.656Z,98213.81
2023-01-10T00:49:44.161Z,98218.38
2023-01-10T00:52:20.187Z,98223.97
2023-01-10T00:54:52.652Z,98217.41
2023-01-10T00:57:19.263Z,98226.72
2023-01-10T00:59:51.173Z,98221.75
2023-01-10T01:02:26.634Z,98235.03
2023-01-10T01:05:14.037Z,98233.19
2023-01-10T01:07:44.224Z,98230.44
2023-01-10T01:10:28.553Z,98237.56
2023-01-10T01:13:11.857Z,98248.78
2023-01-10T01:18:30.701Z,98262.38
2023-01-10T01:21:16.536Z,98263.78
2023-01-10T01:23:57.112Z,98273.69
2023-01-10T01:26:40.935Z,98283.09
2023-01-10T01:29:43.021Z,98285.81
2023-01-10T01:32:12.822Z,98286.59
2023-01-10T01:34:39.518Z,98289.81
2023-01-10T01:37:07.052Z,98285.84
2023-01-10T01:39:33.467Z,98301.72
2023-01-10T01:42:00.799Z,98308.72
2023-01-10T01:44:33.938Z,98314.34
2023-01-10T01:47:09.063Z,98311.94
2023-01-10T01:49:40.033Z,98326.53
2023-01-10T01:52:18.747Z,98316.47
2023-01-10T01:54:45.186Z,98319.25
2023-01-10T01:57:18.092Z,98326.53
2023-01-10T01:59:47.870Z,98324.53
2023-01-10T02:02:41.434Z,98332.81
2023-01-10T02:05:31.067Z,98324.44
2023-01-10T02:08:04.805Z,98323.63
2023-01-10T02:10:59.524Z,98328.63
2023-01-10T02:13:43.955Z,98338.31
2023-01-10T02:16:19.067Z,98341.91
2023-01-10T02:22:27.233Z,98346.69
2023-01-10T02:25:30.455Z,98356.41
2023-01-10T02:28:20.385Z,98348.91
2023-01-10T02:30:46.870Z,98341.69
2023-01-10T02:33:50.930Z,98354.25
2023-01-10T02:36:26.668Z,98373.47
2023-01-10T02:39:20.620Z,98367.88
2023-01-10T02:42:09.491Z,98369.72
2023-01-10T02:44:50.050Z,98380.69
2023-01-10T02:47:19.364Z,98382.47
2023-01-10T02:49:51.276Z,98380.16
2023-01-10T02:52:23.314Z,98386.72
2023-01-10T02:55:03.008Z,98398.81
2023-01-10T02:57:56.749Z,98394.91
2023-01-10T03:00:57.658Z,98399.97
2023-01-10T03:03:59.917Z,98396.00
2023-01-10T03:06:31.660Z,98404.97
2023-01-10T03:09:16.237Z,98404.44
2023-01-10T03:11:52.406Z,98403.19
2023-01-10T03:14:25.619Z,98410.84
2023-01-10T03:17:05.823Z,98427.41
2023-01-10T03:19:44.900Z,98415.81
2023-01-10T03:22:23.957Z,98422.66
2023-01-10T03:24:58.774Z,98419.13
2023-01-10T03:27:43.480Z,98431.03
2023-01-10T03:30:26.605Z,98442.59
2023-01-10T03:32:56.219Z,98446.16
2023-01-10T03:35:31.217Z,98444.13
2023-01-10T03:43:46.610Z,98458.44
2023-01-10T03:46:33.770Z,98477.09
2023-01-10T03:51:34.909Z,98487.13
2023-01-10T03:57:02.818Z,98497.28
2023-01-10T03:59:53.169Z,98508.22
2023-01-10T04:02:20.575Z,98508.47
2023-01-10T04:04:57.770Z,98510.34
2023-01-10T04:07:25.275Z,98515.16
2023-01-10T04:09:51.832Z,98521.75
2023-01-10T04:12:25.705Z,98526.53
2023-01-10T04:14:58.906Z,98531.09
2023-01-10T04:17:43.449Z,98544.97
2023-01-10T04:20:18.093Z,98548.19
2023-01-10T04:22:49.705Z,98543.66
2023-01-10T04:25:21.040Z,98552.03
2023-01-10T04:27:52.861Z,98555.13
2023-01-10T04:30:34.480Z,98558.22
2023-01-10T04:33:01.147Z,98557.88
2023-01-10T04:35:31.341Z,98568.38
2023-01-10T04:38:02.246Z,98584.31
2023-01-10T04:40:30.582Z,98585.13
2023-01-10T04:43:10.321Z,98591.63
2023-01-10T04:45:39.454Z,98595.00
2023-01-10T04:53:05.762Z,98608.34
2023-01-10T04:55:33.075Z,98611.22
2023-01-10T04:58:01.836Z,98622.53
2023-01-10T05:00:31.355Z,98620.09
2023-01-10T05:05:44.027Z,98621.97
2023-01-10T05:08:20.664Z,98627.31
2023-01-10T05:10:50.073Z,98640.25
2023-01-10T05:13:19.492Z,98645.22
2023-01-10T05:15:51.242Z,98649.13
2023-01-10T05:18:22.395Z,98658.31
2023-01-10T05:21:00.489Z,98666.78
2023-01-10T05:23:31.203Z,98675.50
2023-01-10T05:26:04.662Z,98684.50
2023-01-10T05:28:34.014Z,98687.28
2023-01-10T05:31:00.710Z,98683.59
2023-01-10T05:33:27.636Z,98690.22
2023-01-10T05:35:54.082Z,98692.09
2023-01-10T05:38:20.569Z,98697.75
2023-01-10T05:40:47.048Z,98704.66
2023-01-10T05:43:13.588Z,98701.78
2023-01-10T05:45:40.076Z,98712.09
2023-01-10T05:48:06.982Z,98715.47
2023-01-10T05:50:34.653Z,98720.28
2023-01-10T05:53:05.601Z,98725.81
2023-01-10T05:56:04.576Z,98732.00
2023-01-10T05:58:47.425Z,98734.84
2023-01-10T06:01:21.712Z,98746.94
2023-01-10T06:04:13.997Z,98742.59
2023-01-10T06:07:09.594Z,98752.72
2023-01-10T06:09:44.153Z,98749.84
2023-01-10T06:12:13.711Z,98759.97
2023-01-10T06:14:43.088Z,98768.22
2023-01-10T06:17:10.885Z,98772.28
2023-01-10T06:19:42.301Z,98774.06
2023-01-10T06:22:15.688Z,98772.78
2023-01-10T06:25:02.336Z,98780.56
2023-01-10T06:27:42.358Z,98785.53
2023-01-10T06:30:15.423Z,98792.66
2023-01-10T06:32:51.632Z,98789.97
2023-01-10T06:35:26.760Z,98804.00
2023-01-10T06:38:07.317Z,98808.88
2023-01-10T06:40:40.840Z,98824.06
2023-01-10T06:43:31.432Z,98825.84
2023-01-10T06:45:58.190Z,98835.38
2023-01-10T06:48:30.022Z,98848.41
2023-01-10T06:58:24.891Z,98869.88
2023-01-10T07:01:29.859Z,98867.78
2023-01-10T07:04:07.385Z,98882.75
2023-01-10T07:06:43.417Z,98893.13
2023-01-10T07:09:16.536Z,98898.59
2023-01-10T07:11:53.008Z,98907.97
2023-01-10T07:14:27.914Z,98910.25
2023-01-10T07:17:07.996Z,98915.41
2023-01-10T07:19:56.437Z,98918.13
2023-01-10T07:22:22.967Z,98916.84
2023-01-10T07:24:58.069Z,98921.38
2023-01-10T07:27:31.562Z,98931.06
2023-01-10T07:30:11.183Z,98928.69
2023-01-10T07:32:57.190Z,98945.44
2023-01-10T07:35:24.797Z,98943.97
2023-01-10T07:43:27.783Z,98969.44
2023-01-10T07:45:57.650Z,98975.69
2023-01-10T07:49:05.041Z,98980.03
2023-01-10T07:51:36.528Z,98990.06
2023-01-10T07:58:14.047Z,98994.59
2023-01-10T08:01:21.382Z,99008.47
2023-01-10T08:05:00.278Z,98996.22
2023-01-10T08:10:57.451Z,99018.44
2023-01-10T08:13:58.157Z,99016.84
2023-01-10T08:16:38.104Z,99012.97
2023-01-10T08:22:18.326Z,99006.34
2023-01-10T08:27:49.775Z,99012.09
2023-01-10T08:35:30.996Z,99032.78
2023-01-10T08:40:31.788Z,99052.59
2023-01-10T08:43:09.761Z,99066.97
2023-01-10T08:45:52.682Z,99053.41
2023-01-10T08:51:05.013Z,99053.69
2023-01-10T08:53:41.950Z,99046.59
2023-01-10T08:56:13.966Z,99055.00
2023-01-10T08:58:45.798Z,99058.50
2023-01-10T09:03:54.558Z,99082.56
2023-01-10T09:06:34.215Z,99085.50
2023-01-10T09:09:08.528Z,99087.44
2023-01-10T09:16:36.763Z,99107.44
2023-01-10T09:19:36.417Z,99122.47
2023-01-10T09:22:11.587Z,99121.97
2023-01-10T09:24:48.652Z,99127.94
2023-01-10T09:27:35.475Z,99127.44
2023-01-10T09:30:06.619Z,99126.63
2023-01-10T09:32:42.494Z,99131.94
2023-01-10T09:35:17.834Z,99144.22
2023-01-10T09:38:01.247Z,99143.38
2023-01-10T09:40:48.383Z,99133.72
2023-01-10T09:43:39.964Z,99136.78
2023-01-10T09:46:43.894Z,99143.25
2023-01-10T09:59:45.628Z,99126.94
2023-01-10T10:05:45.741Z,99134.28
2023-01-10T10:08:30.218Z,99129.78
2023-01-10T10:12:18.288Z,99141.88
2023-01-10T10:18:53.360Z,99140.66
2023-01-10T10:21:48.934Z,99145.19
2023-01-10T10:28:33.456Z,99149.00
2023-01-10T10:35:24.054Z,99153.22
2023-01-10T10:37:53.543Z,99155.34
2023-01-10T10:40:25.782Z,99155.47
2023-01-10T10:42:55.064Z,99166.91
2023-01-10T10:45:52.035Z,99170.78
2023-01-10T10:53:29.129Z,99164.56
2023-01-10T10:56:05.470Z,99156.72
2023-01-10T10:58:40.927Z,99173.28
2023-01-10T11:01:15.652Z,99162.91
2023-01-10T11:03:55.312Z,99167.88
2023-01-10T11:06:37.425Z,99171.19
2023-01-10T11:09:07.724Z,99171.13
2023-01-10T11:11:49.522Z,99168.59
2023-01-10T11:14:46.923Z,99174.25
2023-01-10T11:17:22.801Z,99180.63
2023-01-10T11:20:16.577Z,99186.47
2023-01-10T11:22:53.971Z,99183.47
2023-01-10T11:25:23.089Z,99188.38
2023-01-10T11:27:59.951Z,99178.28
2023-01-10T11:30:33.765Z,99180.75
2023-01-10T11:33:03.107Z,99183.97
2023-01-10T11:35:37.074Z,99164.91
2023-01-10T11:41:08.637Z,99165.50
2023-01-10T11:43:42.231Z,99157.09
2023-01-10T11:49:08.446Z,99155.47
2023-01-10T11:51:41.369Z,99160.22
2023-01-10T11:57:08.835Z,99180.13
2023-01-10T12:00:03.069Z,99183.84
2023-01-10T12:02:57.386Z,99185.78
2023-01-10T12:05:44.661Z,99186.56
2023-01-10T12:08:39.355Z,99188.97
2023-01-10T12:11:45.535Z,99193.00
2023-01-10T12:15:21.430Z,99193.09
2023-01-10T12:18:17.483Z,99191.72
2023-01-10T12:20:58.827Z,99197.03
2023-01-10T12:23:44.268Z,99196.09
2023-01-10T12:26:20.235Z,99201.41
2023-01-10T12:29:06.931Z,99201.25
2023-01-10T12:31:41.315Z,99198.19
2023-01-10T12:34:17.321Z,99197.38
2023-01-10T12:37:38.007Z,99201.06
2023-01-10T12:40:45.594Z,99198.03
2023-01-10T12:43:38.499Z,99200.09
2023-01-10T12:47:10.077Z,99194.44
2023-01-10T12:51:15.928Z,99186.03
2023-01-10T12:59:09.727Z,99186.50
2023-01-10T13:06:37.310Z,99187.88
2023-01-10T13:15:40.523Z,99189.66
2023-01-10T13:18:49.119Z,99175.91
2023-01-10T13:21:59.316Z,99183.31
2023-01-10T13:25:56.131Z,99182.16
2023-01-10T14:14:04.564Z,99214.34
2023-01-10T14:17:23.926Z,99211.84
2023-01-10T14:27:24.916Z,99220.97
2023-01-10T14:51:47.003Z,99229.25
2023-01-10T14:54:25.030Z,99226.38
2023-01-10T15:04:37.721Z,99230.25
2023-01-10T15:11:29.280Z,99221.03
2023-01-10T15:14:19.005Z,99214.53
2023-01-10T15:16:49.267Z,99221.78
2023-01-10T15:40:24.453Z,99208.72
2023-01-10T16:22:48.557Z,99163.13
2023-01-10T16:25:39.293Z,99157.63
2023-01-10T16:55:35.523Z,99168.66
2023-01-10T17:03:19.202Z,99174.16
2023-01-10T17:07:49.810Z,99174.31
2023-01-10T17:10:52.476Z,99175.09
2023-01-10T17:24:58.964Z,99163.50
2023-01-10T17:28:01.372Z,99156.06
2023-01-10T17:40:30.707Z,99152.53
2023-01-10T17:46:22.203Z,99138.31
2023-01-10T17:48:59.595Z,99146.88
2023-01-10T17:51:54.986Z,99139.47
2023-01-10T17:58:12.880Z,99139.13
2023-01-10T18:01:11.720Z,99139.16
2023-01-10T18:06:24.039Z,99134.59
2023-01-10T18:08:57.376Z,99129.16
2023-01-10T18:11:25.590Z,99138.97
2023-01-10T18:14:03.262Z,99133.81
2023-01-10T18:16:29.837Z,99125.59
2023-01-10T18:18:58.772Z,99130.09
2023-01-10T18:21:29.458Z,99133.16
2023-01-10T18:24:27.501Z,99142.06
2023-01-10T18:27:05.224Z,99134.94
2023-01-10T18:36:50.520Z,99132.19
2023-01-10T18:39:38.503Z,99130.09
2023-01-10T18:42:19.259Z,99134.59
2023-01-10T18:44:56.102Z,99138.50
2023-01-10T18:47:37.920Z,99136.56
2023-01-10T18:50:08.146Z,99128.31
2023-01-10T18:52:36.653Z,99123.97
2023-01-10T18:58:41.808Z,99114.28
2023-01-10T19:01:17.954Z,99105.91
2023-01-10T19:03:50.125Z,99102.19
2023-01-10T19:06:18.963Z,99099.31
2023-01-10T19:08:54.286Z,99097.00
2023-01-10T19:11:21.112Z,99097.00
2023-01-10T19:13:51.327Z,99087.53
2023-01-10T19:19:12.274Z,99086.06
2023-01-10T19:21:48.175Z,99087.84
2023-01-10T19:24:24.997Z,99086.53
2023-01-10T19:26:52.053Z,99086.88
2023-01-10T19:29:30.398Z,99081.53
2023-01-10T19:31:59.813Z,99079.94
2023-01-10T19:34:29.387Z,99083.81
2023-01-10T19:37:28.968Z,99083.63
2023-01-10T19:40:11.453Z,99078.16
2023-01-10T19:42:41.704Z,99083.97
2023-01-10T19:45:18.954Z,99076.53
2023-01-10T19:47:45.571Z,99072.38
2023-01-10T19:50:13.507Z,99073.50
2023-01-10T19:52:48.876Z,99080.09
2023-01-10T19:55:24.976Z,99078.47
2023-01-10T20:06:03.495Z,99084.06
2023-01-10T20:11:25.893Z,99074.72
2023-01-10T20:14:02.502Z,99072.63
2023-01-10T20:16:36.037Z,99067.97
2023-01-10T20:19:25.821Z,99058.63
2023-01-10T20:21:59.220Z,99070.91
2023-01-10T20:27:16.951Z,99072.97
2023-01-10T20:32:15.298Z,99060.41
2023-01-10T20:35:02.147Z,99052.66
2023-01-10T20:37:33.230Z,99043.66
2023-01-10T20:40:04.511Z,99046.56
2023-01-10T20:42:33.075Z,99043.00
2023-01-10T20:44:59.806Z,99043.97
2023-01-10T20:47:30.872Z,99045.72
2023-01-10T20:49:57.551Z,99039.78
2023-01-10T20:52:24.396Z,99042.03
2023-01-10T20:57:26.521Z,99039.63
2023-01-10T20:59:58.433Z,99037.38
2023-01-10T21:02:29.853Z,99042.22
2023-01-10T21:05:06.813Z,99036.41
2023-01-10T21:07:37.376Z,99034.28
2023-01-10T21:10:28.245Z,99036.53
2023-01-10T21:12:57.404Z,99034.28
2023-01-10T21:15:53.958Z,99021.72
2023-01-10T21:18:29.003Z,99024.31
2023-01-10T21:21:01.126Z,99023.50
2023-01-10T21:23:33.299Z,99014.31
2023-01-10T21:26:03.182Z,99012.72
2023-01-10T21:28:33.458Z,99014.31
2023-01-10T21:31:24.131Z,99009.31
2023-01-10T21:36:23.726Z,99002.22
2023-01-10T21:38:59.685Z,99009.31
2023-01-10T21:41:46.048Z,98996.91
2023-01-10T21:44:15.846Z,98994.50
2023-01-10T21:47:15.405Z,98990.78
2023-01-10T21:49:42.401Z,98984.97
2023-01-10T21:54:43.573Z,98973.84
2023-01-10T21:57:28.009Z,98965.19
2023-01-10T22:02:35.525Z,98962.09
2023-01-10T22:05:02.853Z,98967.91
2023-01-10T22:07:29.725Z,98964.19
2023-01-10T22:10:09.156Z,98960.50
2023-01-10T22:12:39.881Z,98961.75
2023-01-10T22:15:11.413Z,98957.25
2023-01-10T22:17:38.142Z,98958.22
2023-01-10T22:20:09.133Z,98956.44
2023-01-10T22:22:37.442Z,98964.84
2023-01-10T22:25:04.890Z,98955.97
2023-01-10T22:27:31.558Z,98959.03
2023-01-10T22:30:30.392Z,98969.34
2023-01-10T22:33:00.493Z,98969.03
2023-01-10T22:35:30.391Z,98961.94
2023-01-10T22:37:56.979Z,98959.66
2023-01-10T22:40:24.083Z,98955.63
2023-01-10T22:42:55.039Z,98957.06
2023-01-10T22:45:21.630Z,98951.72
2023-01-10T22:47:53.263Z,98946.75
2023-01-10T22:50:23.303Z,98947.88
2023-01-10T22:52:54.483Z,98953.97
2023-01-10T22:55:22.522Z,98950.94
2023-01-10T22:57:56.336Z,98950.78
2023-01-10T23:00:27.672Z,98947.22
2023-01-10T23:03:13.086Z,98935.31
2023-01-10T23:05:48.779Z,98935.13
2023-01-10T23:08:28.435Z,98929.97
2023-01-10T23:10:58.473Z,98915.97
2023-01-10T23:13:34.610Z,98913.59
2023-01-10T23:16:27.696Z,98912.75
2023-01-10T23:18:59.443Z,98911.63
2023-01-10T23:21:29.185Z,98915.34
2023-01-10T23:24:07.666Z,98909.38
2023-01-10T23:26:35.835Z,98916.78
2023-01-10T23:29:05.516Z,98903.28
2023-01-10T23:31:34.631Z,98899.38
2023-01-10T23:37:11.316Z,98886.94
2023-01-10T23:39:54.440Z,98872.59
2023-01-10T23:42:40.016Z,98867.63
2023-01-10T23:45:08.001Z,98862.78
2023-01-10T23:48:04.839Z,98857.63
2023-01-10T23:50:38.716Z,98859.06
2023-01-10T23:53:12.424Z,98858.88
2023-01-10T23:55:44.599Z,98855.97
2023-01-10T23:58:14.342Z,98861.47
